createdAt,value
2018-12-05T00:01:30.417Z,114.37
2018-12-05T00:03:59.411Z,119.13
2018-12-05T00:06:28.402Z,114.20
2018-12-05T00:08:57.428Z,111.33
2018-12-05T00:11:26.447Z,110.90
2018-12-05T00:13:55.443Z,112.50
2018-12-05T00:16:24.453Z,110.43
2018-12-05T00:18:53.603Z,110.67
2018-12-05T00:21:22.691Z,109.77
2018-12-05T00:23:51.814Z,109.20
2018-12-05T00:26:20.909Z,109.60
2018-12-05T00:28:50.037Z,104.30
2018-12-05T00:31:19.005Z,105.83
2018-12-05T00:33:48.042Z,104.93
2018-12-05T00:36:17.052Z,105.00
2018-12-05T00:38:46.072Z,103.97
2018-12-05T00:41:15.072Z,101.40
2018-12-05T00:43:44.082Z,100.47
2018-12-05T00:46:13.206Z,101.40
2018-12-05T00:48:42.326Z,98.43
2018-12-05T00:51:11.359Z,100.47
2018-12-05T00:53:40.463Z,99.20
2018-12-05T00:56:09.348Z,96.93
2018-12-05T00:58:38.348Z,96.40
2018-12-05T01:01:07.472Z,95.17
2018-12-05T01:03:36.446Z,94.67
2018-12-05T01:06:05.385Z,93.23
2018-12-05T01:08:34.461Z,95.53
2018-12-05T01:11:03.608Z,95.90
2018-12-05T01:13:32.623Z,94.00
2018-12-05T01:16:01.636Z,94.60
2018-12-05T01:18:30.744Z,92.57
2018-12-05T01:20:59.688Z,90.90
2018-12-05T01:23:28.808Z,89.83
2018-12-05T01:25:57.780Z,91.70
2018-12-05T01:28:26.893Z,89.93
2018-12-05T01:30:56.129Z,91.67
2018-12-05T01:33:25.395Z,89.53
2018-12-05T01:35:54.359Z,90.97
2018-12-05T01:38:23.438Z,88.97
2018-12-05T01:40:52.454Z,88.03
2018-12-05T01:43:23.614Z,88.87
2018-12-05T01:45:52.836Z,91.13
2018-12-05T01:48:21.832Z,90.87
2018-12-05T01:50:50.861Z,89.83
2018-12-05T01:53:20.161Z,87.90
2018-12-05T01:55:49.102Z,87.90
2018-12-05T01:58:18.120Z,87.63
2018-12-05T02:00:47.100Z,90.10
2018-12-05T02:03:16.229Z,89.87
2018-12-05T02:05:45.334Z,86.87
2018-12-05T02:08:14.380Z,89.60
2018-12-05T02:10:43.452Z,86.00
2018-12-05T02:13:12.450Z,86.70
2018-12-05T02:15:41.473Z,87.33
2018-12-05T02:18:10.481Z,86.97
2018-12-05T02:20:39.579Z,83.47
2018-12-05T02:23:08.704Z,84.77
2018-12-05T02:25:37.901Z,83.50
2018-12-05T02:28:06.923Z,84.23
2018-12-05T02:30:36.549Z,82.70
2018-12-05T02:33:05.626Z,82.07
2018-12-05T02:35:34.534Z,83.87
2018-12-05T02:38:03.465Z,84.40
2018-12-05T02:40:32.483Z,83.97
2018-12-05T02:43:01.492Z,81.93
2018-12-05T02:45:30.511Z,80.60
2018-12-05T02:47:59.624Z,82.33
2018-12-05T02:50:28.638Z,79.20
2018-12-05T02:52:57.631Z,83.33
2018-12-05T02:55:26.559Z,81.50
2018-12-05T02:57:55.613Z,82.63
2018-12-05T03:00:24.489Z,81.83
2018-12-05T03:02:53.479Z,80.23
2018-12-05T03:05:22.495Z,79.20
2018-12-05T03:07:51.608Z,79.80
2018-12-05T03:10:20.715Z,79.20
2018-12-05T03:12:49.958Z,81.90
2018-12-05T03:15:19.068Z,80.07
2018-12-05T03:17:48.163Z,79.17
2018-12-05T03:20:17.149Z,79.53
2018-12-05T03:22:46.177Z,80.33
2018-12-05T03:25:15.198Z,81.10
2018-12-05T03:27:44.214Z,77.67
2018-12-05T03:30:13.254Z,77.90
2018-12-05T03:32:42.239Z,80.40
2018-12-05T03:35:11.335Z,77.77
2018-12-05T03:37:40.451Z,77.20
2018-12-05T03:40:09.569Z,76.80
2018-12-05T03:42:38.603Z,77.53
2018-12-05T03:45:07.632Z,75.67
2018-12-05T03:47:36.595Z,75.50
2018-12-05T03:50:05.545Z,74.30
2018-12-05T03:52:34.523Z,77.60
2018-12-05T03:55:03.528Z,75.47
2018-12-05T03:57:32.743Z,78.87
2018-12-05T04:00:01.778Z,76.20
2018-12-05T04:02:30.884Z,75.17
2018-12-05T04:04:59.985Z,73.93
2018-12-05T04:07:29.097Z,75.10
2018-12-05T04:09:58.198Z,77.53
2018-12-05T04:12:27.213Z,74.13
2018-12-05T04:14:56.232Z,73.33
2018-12-05T04:17:25.136Z,75.30
2018-12-05T04:19:54.132Z,79.20
2018-12-05T04:22:23.317Z,77.80
2018-12-05T04:24:52.405Z,83.03
2018-12-05T04:27:25.189Z,83.97
2018-12-05T04:29:54.380Z,78.70
2018-12-05T04:32:23.394Z,81.47
2018-12-05T04:34:52.396Z,82.43
2018-12-05T04:37:21.299Z,85.40
2018-12-05T04:39:50.331Z,84.37
2018-12-05T04:42:19.444Z,87.00
2018-12-05T04:44:48.453Z,79.37
2018-12-05T04:47:17.759Z,82.87
2018-12-05T04:49:46.806Z,78.50
2018-12-05T04:52:15.848Z,96.10
2018-12-05T04:54:44.910Z,83.23
2018-12-05T04:57:14.005Z,78.90
2018-12-05T04:59:43.012Z,77.83
2018-12-05T05:02:11.890Z,78.50
2018-12-05T05:04:40.944Z,78.30
2018-12-05T05:07:09.989Z,77.40
2018-12-05T05:09:39.193Z,79.03
2018-12-05T05:12:08.379Z,77.70
2018-12-05T05:14:37.605Z,97.10
2018-12-05T05:17:06.556Z,112.50
2018-12-05T05:19:35.895Z,119.30
2018-12-05T05:22:05.009Z,119.70
2018-12-05T05:24:34.063Z,134.70
2018-12-05T05:27:02.973Z,123.40
2018-12-05T05:29:31.978Z,125.43
2018-12-05T05:32:01.008Z,122.30
2018-12-05T05:34:30.019Z,125.90
2018-12-05T05:36:59.096Z,117.27
2018-12-05T05:39:28.208Z,119.03
2018-12-05T05:41:57.328Z,92.10
2018-12-05T05:44:26.456Z,96.10
2018-12-05T05:46:55.453Z,89.40
2018-12-05T05:49:24.553Z,95.03
2018-12-05T05:51:53.531Z,100.20
2018-12-05T05:54:22.473Z,72.37
2018-12-05T05:56:51.533Z,61.40
2018-12-05T05:59:20.627Z,58.67
2018-12-05T06:01:49.733Z,50.30
2018-12-05T06:04:18.751Z,61.20
2018-12-05T06:06:47.733Z,62.40
2018-12-05T06:09:16.758Z,60.93
2018-12-05T06:11:45.766Z,60.07
2018-12-05T06:14:14.766Z,59.17
2018-12-05T06:16:43.764Z,59.53
2018-12-05T06:19:12.695Z,60.37
2018-12-05T06:21:41.814Z,57.20
2018-12-05T06:24:10.906Z,59.47
2018-12-05T06:26:39.914Z,55.47
2018-12-05T06:29:08.864Z,56.83
2018-12-05T06:31:37.945Z,53.83
2018-12-05T06:34:06.967Z,54.60
2018-12-05T06:36:36.075Z,53.37
2018-12-05T06:39:06.727Z,54.10
2018-12-05T06:41:35.838Z,53.03
2018-12-05T06:44:04.762Z,52.33
2018-12-05T06:46:33.848Z,50.83
2018-12-05T06:49:02.987Z,51.00
2018-12-05T06:51:32.083Z,50.80
2018-12-05T06:54:01.206Z,49.73
2018-12-05T06:56:30.204Z,49.10
2018-12-05T06:58:59.204Z,49.13
2018-12-05T07:01:28.270Z,47.80
2018-12-05T07:03:57.221Z,48.07
2018-12-05T07:06:26.233Z,47.07
2018-12-05T07:08:55.653Z,46.83
2018-12-05T07:11:24.663Z,47.60
2018-12-05T07:13:53.684Z,47.57
2018-12-05T07:16:22.702Z,47.17
2018-12-05T07:18:51.711Z,46.73
2018-12-05T07:21:20.702Z,45.07
2018-12-05T07:23:49.834Z,44.20
2018-12-05T07:26:18.831Z,42.07
2018-12-05T07:28:47.881Z,42.73
2018-12-05T07:31:16.848Z,44.13
2018-12-05T07:33:45.870Z,42.10
2018-12-05T07:36:14.975Z,43.70
2018-12-05T07:38:44.089Z,41.73
2018-12-05T07:41:13.104Z,43.50
2018-12-05T07:43:42.228Z,40.97
2018-12-05T07:46:11.220Z,42.50
2018-12-05T07:48:40.331Z,40.97
2018-12-05T07:51:09.356Z,40.17
2018-12-05T07:53:38.351Z,39.60
2018-12-05T07:56:07.409Z,39.70
2018-12-05T07:58:36.301Z,39.83
2018-12-05T08:01:05.286Z,40.60
2018-12-05T08:03:34.302Z,38.77
2018-12-05T08:06:03.332Z,38.10
2018-12-05T08:08:32.336Z,37.23
2018-12-05T08:11:01.392Z,36.90
2018-12-05T08:13:30.444Z,36.50
2018-12-05T08:15:59.447Z,36.90
2018-12-05T08:18:28.569Z,35.23
2018-12-05T08:20:57.681Z,36.07
2018-12-05T08:23:26.705Z,36.40
2018-12-05T08:25:55.885Z,35.50
2018-12-05T08:28:25.023Z,35.73
2018-12-05T08:30:54.044Z,34.40
2018-12-05T08:33:23.049Z,34.27
2018-12-05T08:35:52.263Z,33.47
2018-12-05T08:38:21.369Z,34.33
2018-12-05T08:40:50.377Z,35.47
2018-12-05T08:43:21.805Z,33.47
2018-12-05T08:45:50.745Z,34.03
2018-12-05T08:48:20.700Z,33.60
2018-12-05T08:50:49.808Z,32.77
2018-12-05T08:53:19.210Z,32.07
2018-12-05T08:55:49.692Z,33.13
2018-12-05T08:58:18.772Z,32.37
2018-12-05T09:00:48.496Z,31.93
2018-12-05T09:03:17.497Z,32.13
2018-12-05T09:05:47.462Z,32.07
2018-12-05T09:08:16.454Z,31.53
2018-12-05T09:10:45.476Z,32.07
2018-12-05T09:13:14.804Z,30.17
2018-12-05T09:15:44.616Z,31.67
2018-12-05T09:18:13.774Z,32.00
2018-12-05T09:20:43.551Z,29.87
2018-12-05T09:23:12.551Z,31.17
2018-12-05T09:25:41.567Z,31.17
2018-12-05T09:28:10.584Z,30.10
2018-12-05T09:30:39.695Z,30.47
2018-12-05T09:33:08.828Z,30.47
2018-12-05T09:35:37.831Z,28.60
2018-12-05T09:38:07.380Z,29.50
2018-12-05T09:40:36.385Z,29.10
2018-12-05T09:43:05.372Z,28.87
2018-12-05T09:45:34.479Z,29.17
2018-12-05T09:48:04.096Z,28.30
2018-12-05T09:50:33.118Z,28.60
2018-12-05T09:53:03.289Z,29.27
2018-12-05T09:55:32.679Z,28.50
2018-12-05T09:58:01.803Z,27.43
2018-12-05T10:00:31.427Z,27.53
2018-12-05T10:03:00.420Z,28.20
2018-12-05T10:05:32.279Z,27.27
2018-12-05T10:08:02.152Z,27.40
2018-12-05T10:10:32.344Z,28.57
2018-12-05T10:13:01.309Z,26.90
2018-12-05T10:15:30.379Z,26.90
2018-12-05T10:17:59.484Z,26.37
2018-12-05T10:20:28.496Z,25.50
2018-12-05T10:22:58.771Z,27.23
2018-12-05T10:25:29.012Z,26.10
2018-12-05T10:27:59.161Z,25.57
2018-12-05T10:30:28.504Z,25.37
2018-12-05T10:32:57.383Z,25.60
2018-12-05T10:35:26.448Z,26.20
2018-12-05T10:37:55.574Z,25.43
2018-12-05T10:40:24.681Z,25.97
2018-12-05T10:42:53.986Z,24.90
2018-12-05T10:45:23.009Z,24.47
2018-12-05T10:47:52.007Z,24.23
2018-12-05T10:50:21.145Z,24.80
2018-12-05T10:55:44.911Z,23.67
2018-12-05T10:58:13.955Z,24.20
2018-12-05T11:00:48.752Z,24.77
2018-12-05T11:03:23.933Z,24.60
2018-12-05T11:06:58.999Z,24.03
2018-12-05T11:09:33.173Z,23.60
2018-12-05T11:12:08.084Z,23.40
2018-12-05T11:14:42.032Z,24.00
2018-12-05T11:17:16.515Z,22.60
2018-12-05T11:19:50.786Z,22.90
2018-12-05T11:22:25.567Z,22.10
2018-12-05T11:24:58.724Z,23.13
2018-12-05T11:27:30.048Z,22.97
2018-12-05T11:30:00.423Z,22.27
2018-12-05T11:32:30.718Z,23.00
2018-12-05T11:34:59.756Z,22.80
2018-12-05T11:37:28.786Z,21.33
2018-12-05T11:39:58.005Z,22.33
2018-12-05T11:42:27.660Z,21.07
2018-12-05T11:44:58.367Z,21.60
2018-12-05T11:47:28.161Z,21.90
2018-12-05T11:49:57.813Z,21.53
2018-12-05T11:52:26.920Z,21.33
2018-12-05T11:54:56.014Z,21.23
2018-12-05T11:57:26.608Z,20.40
2018-12-05T11:59:55.579Z,21.23
2018-12-05T12:02:25.749Z,20.60
2018-12-05T12:04:54.681Z,21.03
2018-12-05T12:07:24.674Z,21.53
2018-12-05T12:09:53.677Z,21.07
2018-12-05T12:12:27.851Z,20.40
2018-12-05T12:14:56.841Z,19.87
2018-12-05T12:17:26.675Z,20.30
2018-12-05T12:19:55.750Z,20.57
2018-12-05T12:22:24.869Z,20.10
2018-12-05T12:24:54.315Z,19.60
2018-12-05T12:27:23.297Z,19.37
2018-12-05T12:29:52.929Z,19.10
2018-12-05T12:32:22.271Z,19.53
2018-12-05T12:34:51.227Z,18.53
2018-12-05T12:37:24.368Z,18.30
2018-12-05T12:39:54.072Z,19.07
2018-12-05T12:42:23.095Z,18.57
2018-12-05T12:44:52.128Z,17.17
2018-12-05T12:47:20.996Z,17.57
2018-12-05T12:49:50.118Z,18.30
2018-12-05T12:52:19.248Z,18.43
2018-12-05T12:54:48.346Z,16.90
2018-12-05T12:57:17.500Z,17.60
2018-12-05T12:59:47.095Z,18.20
2018-12-05T13:02:16.107Z,18.00
2018-12-05T13:04:45.633Z,17.50
2018-12-05T13:07:14.726Z,16.70
2018-12-05T13:09:43.746Z,17.43
2018-12-05T13:15:04.086Z,16.77
2018-12-05T13:17:34.019Z,17.90
2018-12-05T13:20:03.580Z,17.30
2018-12-05T13:22:33.340Z,17.30
2018-12-05T13:25:03.012Z,16.93
2018-12-05T13:27:32.805Z,17.17
2018-12-05T13:30:01.914Z,16.90
2018-12-05T13:32:30.932Z,17.77
2018-12-05T13:34:59.940Z,16.80
2018-12-05T13:37:29.070Z,16.93
2018-12-05T13:39:58.054Z,17.40
2018-12-05T13:42:28.508Z,16.17
2018-12-05T13:44:58.231Z,17.37
2018-12-05T13:47:27.232Z,15.83
2018-12-05T13:49:56.320Z,16.40
2018-12-05T13:52:25.881Z,16.90
2018-12-05T13:54:55.106Z,15.50
2018-12-05T13:57:24.215Z,16.30
2018-12-05T13:59:53.314Z,15.23
2018-12-05T14:02:23.051Z,15.30
2018-12-05T14:04:52.172Z,16.10
2018-12-05T14:07:21.481Z,15.67
2018-12-05T14:09:51.432Z,14.47
2018-12-05T14:12:25.679Z,14.97
2018-12-05T14:14:54.746Z,14.70
2018-12-05T14:17:23.891Z,15.10
2018-12-05T14:19:52.843Z,15.00
2018-12-05T14:22:21.993Z,14.33
2018-12-05T14:24:51.001Z,14.50
2018-12-05T14:27:20.115Z,14.30
2018-12-05T14:29:49.458Z,14.50
2018-12-05T14:32:18.557Z,14.80
2018-12-05T14:34:48.285Z,14.13
2018-12-05T14:37:17.288Z,14.77
2018-12-05T14:39:46.403Z,14.20
2018-12-05T14:42:16.438Z,13.77
2018-12-05T14:44:46.876Z,14.13
2018-12-05T14:47:15.877Z,14.80
2018-12-05T14:49:46.247Z,13.67
2018-12-05T14:52:15.232Z,13.63
2018-12-05T14:54:44.270Z,13.57
2018-12-05T14:57:13.726Z,13.30
2018-12-05T14:59:43.428Z,13.20
2018-12-05T15:02:12.493Z,13.77
2018-12-05T15:04:41.611Z,14.00
2018-12-05T15:07:10.723Z,14.10
2018-12-05T15:09:40.248Z,14.57
2018-12-05T15:12:09.365Z,13.67
2018-12-05T15:14:39.504Z,13.93
2018-12-05T15:17:09.287Z,13.50
2018-12-05T15:19:42.577Z,13.00
2018-12-05T15:22:12.276Z,13.50
2018-12-05T15:24:41.374Z,13.87
2018-12-05T15:27:10.484Z,13.20
2018-12-05T15:29:39.619Z,12.23
2018-12-05T15:32:08.713Z,12.70
2018-12-05T15:34:37.747Z,12.63
2018-12-05T15:37:06.749Z,12.00
2018-12-05T15:39:37.302Z,12.93
2018-12-05T15:42:06.399Z,12.40
2018-12-05T15:44:36.015Z,13.07
2018-12-05T15:47:05.043Z,11.90
2018-12-05T15:49:35.268Z,12.23
2018-12-05T15:52:04.545Z,12.87
2018-12-05T15:54:34.743Z,11.30
2018-12-05T15:57:09.986Z,11.60
2018-12-05T15:59:39.559Z,11.20
2018-12-05T16:02:10.546Z,12.17
2018-12-05T16:04:43.110Z,12.30
2018-12-05T16:07:12.054Z,12.07
2018-12-05T16:09:43.393Z,12.37
2018-12-05T16:12:13.961Z,13.60
2018-12-05T16:14:45.075Z,18.03
2018-12-05T16:17:15.504Z,22.50
2018-12-05T16:19:46.474Z,21.83
2018-12-05T16:22:16.967Z,20.47
2018-12-05T16:24:49.973Z,20.00
2018-12-05T16:27:20.977Z,16.80
2018-12-05T16:29:52.420Z,22.37
2018-12-05T16:32:22.445Z,22.07
2018-12-05T16:34:53.360Z,21.23
2018-12-05T16:37:28.367Z,20.77
2018-12-05T16:40:01.786Z,22.50
2018-12-05T16:42:31.749Z,22.20
2018-12-05T16:45:02.308Z,21.00
2018-12-05T16:47:32.037Z,21.00
2018-12-05T16:50:01.814Z,20.43
2018-12-05T16:52:32.419Z,20.50
2018-12-05T16:55:02.512Z,20.73
2018-12-05T16:57:37.644Z,18.00
2018-12-05T17:00:09.291Z,18.30
2018-12-05T17:02:39.964Z,17.43
2018-12-05T17:05:12.437Z,16.37
2018-12-05T17:07:42.631Z,16.30
2018-12-05T17:10:12.637Z,16.00
2018-12-05T17:12:44.059Z,14.90
2018-12-05T17:15:15.363Z,13.73
2018-12-05T17:17:46.838Z,13.37
2018-12-05T17:20:17.070Z,17.27
2018-12-05T17:22:47.630Z,18.73
2018-12-05T17:25:17.981Z,20.17
2018-12-05T17:27:49.301Z,20.90
2018-12-05T17:30:19.145Z,21.67
2018-12-05T17:32:48.463Z,22.00
2018-12-05T17:35:18.192Z,20.53
2018-12-05T17:37:48.115Z,21.87
2018-12-05T17:40:18.342Z,23.10
2018-12-05T17:42:49.618Z,23.60
2018-12-05T17:45:19.324Z,25.67
2018-12-05T17:47:50.038Z,23.70
2018-12-05T17:50:19.525Z,61.00
2018-12-05T17:52:53.456Z,49.13
2018-12-05T17:55:23.362Z,26.00
2018-12-05T17:57:53.815Z,26.97
2018-12-05T18:00:23.700Z,27.60
2018-12-05T18:02:53.643Z,26.70
2018-12-05T18:05:24.559Z,27.03
2018-12-05T18:07:59.609Z,25.07
2018-12-05T18:10:29.635Z,24.40
2018-12-05T18:13:00.835Z,23.87
2018-12-05T18:15:30.595Z,23.30
2018-12-05T18:18:00.689Z,24.00
2018-12-05T18:20:32.275Z,23.70
2018-12-05T18:23:03.168Z,23.20
2018-12-05T18:25:32.635Z,22.57
2018-12-05T18:28:02.818Z,24.77
2018-12-05T18:30:33.223Z,22.93
2018-12-05T18:40:10.669Z,22.00
2018-12-05T18:42:40.849Z,21.40
2018-12-05T18:45:10.731Z,22.40
2018-12-05T18:47:39.786Z,22.00
2018-12-05T18:50:09.998Z,19.80
2018-12-05T18:52:38.971Z,21.00
2018-12-05T18:55:08.071Z,21.00
2018-12-05T18:57:37.103Z,20.13
2018-12-05T19:00:08.293Z,20.10
2018-12-05T19:02:38.450Z,19.40
2018-12-05T19:05:08.212Z,19.07
2018-12-05T19:07:38.361Z,18.17
2018-12-05T19:10:07.999Z,19.17
2018-12-05T19:12:36.982Z,18.73
2018-12-05T19:15:07.029Z,18.33
2018-12-05T19:17:36.047Z,19.57
2018-12-05T19:20:05.236Z,19.60
2018-12-05T19:22:34.660Z,19.13
2018-12-05T19:25:04.761Z,18.17
2018-12-05T19:27:34.688Z,19.20
2018-12-05T19:30:05.123Z,17.00
2018-12-05T19:32:35.719Z,18.00
2018-12-05T19:35:06.041Z,17.93
2018-12-05T19:37:36.787Z,17.10
2018-12-05T19:40:06.813Z,17.60
2018-12-05T19:42:36.575Z,16.97
2018-12-05T19:45:05.993Z,16.97
2018-12-05T19:47:35.173Z,16.03
2018-12-05T19:50:04.259Z,16.10
2018-12-05T19:52:33.347Z,16.03
2018-12-05T19:55:02.551Z,16.27
2018-12-05T19:57:31.549Z,25.10
2018-12-05T20:00:00.559Z,16.87
2018-12-05T20:02:29.572Z,17.27
2018-12-05T20:05:03.169Z,17.67
2018-12-05T20:07:32.928Z,16.07
2018-12-05T20:10:01.933Z,16.00
2018-12-05T20:12:31.537Z,16.67
2018-12-05T20:15:00.474Z,15.30
2018-12-05T20:17:30.749Z,15.43
2018-12-05T20:19:59.822Z,18.47
2018-12-05T20:22:30.670Z,22.67
2018-12-05T20:25:00.595Z,25.00
2018-12-05T20:27:30.225Z,24.80
2018-12-05T20:29:59.336Z,23.80
2018-12-05T20:32:29.569Z,26.40
2018-12-05T20:34:58.696Z,26.50
2018-12-05T20:37:27.717Z,27.07
2018-12-05T20:39:56.704Z,27.03
2018-12-05T20:42:26.697Z,27.20
2018-12-05T20:44:55.653Z,28.00
2018-12-05T20:47:25.261Z,28.97
2018-12-05T20:49:54.304Z,28.03
2018-12-05T20:52:23.394Z,29.73
2018-12-05T20:54:52.395Z,28.07
2018-12-05T20:57:23.504Z,28.80
2018-12-05T20:59:53.768Z,29.80
2018-12-05T21:02:22.834Z,27.80
2018-12-05T21:04:51.932Z,27.40
2018-12-05T21:07:21.159Z,28.20
2018-12-05T21:09:50.192Z,26.10
2018-12-05T21:12:19.778Z,26.40
2018-12-05T21:14:49.587Z,26.57
2018-12-05T21:17:18.629Z,26.37
2018-12-05T21:19:48.377Z,25.13
2018-12-05T21:22:17.591Z,27.20
2018-12-05T21:24:47.042Z,26.00
2018-12-05T21:27:15.997Z,24.90
2018-12-05T21:29:45.829Z,25.90
2018-12-05T21:32:14.837Z,26.53
2018-12-05T21:34:44.181Z,25.73
2018-12-05T21:37:13.158Z,26.93
2018-12-05T21:39:42.119Z,26.40
2018-12-05T21:42:11.747Z,27.37
2018-12-05T21:44:40.829Z,27.43
2018-12-05T21:47:09.814Z,27.40
2018-12-05T21:49:38.828Z,29.50
2018-12-05T21:52:07.828Z,30.10
2018-12-05T21:54:36.866Z,30.90
2018-12-05T21:57:06.256Z,31.57
2018-12-05T21:59:35.387Z,32.80
2018-12-05T22:02:04.487Z,33.67
2018-12-05T22:04:33.509Z,35.63
2018-12-05T22:07:03.363Z,34.60
2018-12-05T22:09:32.442Z,35.23
2018-12-05T22:12:01.464Z,35.87
2018-12-05T22:14:31.416Z,35.70
2018-12-05T22:17:00.508Z,35.67
2018-12-05T22:19:29.518Z,36.43
2018-12-05T22:21:58.624Z,37.70
2018-12-05T22:24:27.737Z,37.93
2018-12-05T22:26:56.704Z,38.30
2018-12-05T22:29:25.656Z,37.80
2018-12-05T22:31:54.618Z,37.30
2018-12-05T22:34:23.564Z,38.50
2018-12-05T22:36:52.608Z,37.67
2018-12-05T22:39:21.609Z,39.63
2018-12-05T22:41:50.869Z,36.30
2018-12-05T22:44:19.809Z,37.17
2018-12-05T22:46:48.820Z,35.70
2018-12-05T22:49:17.942Z,36.10
2018-12-05T22:51:48.205Z,37.60
2018-12-05T22:54:17.195Z,37.17
2018-12-05T22:56:56.032Z,38.20
2018-12-05T22:59:25.133Z,37.83
2018-12-05T23:01:54.477Z,36.90
2018-12-05T23:04:23.455Z,37.60
2018-12-05T23:06:52.480Z,38.10
2018-12-05T23:09:22.512Z,38.77
2018-12-05T23:11:52.189Z,37.17
2018-12-05T23:14:21.656Z,36.63
2018-12-05T23:16:50.777Z,37.10
2018-12-05T23:19:20.705Z,36.03
2018-12-05T23:21:50.543Z,35.27
2018-12-05T23:24:20.368Z,34.63
2018-12-05T23:26:49.278Z,33.43
2018-12-05T23:29:18.305Z,33.63
2018-12-05T23:31:47.295Z,34.97
2018-12-05T23:34:17.144Z,31.50
2018-12-05T23:36:46.135Z,33.37
2018-12-05T23:39:15.264Z,35.13
2018-12-05T23:41:45.162Z,33.73
2018-12-05T23:44:14.115Z,32.73
2018-12-05T23:46:43.089Z,32.10
2018-12-05T23:49:12.013Z,30.90
2018-12-05T23:51:41.011Z,31.07
2018-12-05T23:54:10.127Z,29.10
2018-12-05T23:56:39.135Z,29.07
2018-12-05T23:59:08.156Z,29.60
